Time;durP1;ratioP1;P1;durP2;ratioP2;P2;SDS_P1;SDS_P2;PMS_P1;PMS_P2;Temp;Humidity;BMP_temperature;BMP_pressure;BME280_temperature;BME280_humidity;BME280_pressure;Samples;Min_cycle;Max_cycle;Signal;HPM_P1;HPM_P2
2021/07/09 00:01:02;;;;;;;3.88;3.47;;;;;;;;;;4500790;28;20030;-59
2021/07/09 00:03:13;;;;;;;3.85;3.40;;;;;;;;;;4436257;28;20062;-59
2021/07/09 00:05:23;;;;;;;4.97;3.83;;;;;;;;;;4503053;28;20448;-59
2021/07/09 00:07:34;;;;;;;4.70;3.47;;;;;;;;;;4501631;28;20078;-59
2021/07/09 00:09:47;;;;;;;4.87;3.60;;;;;;;;;;4484095;28;20042;-59
2021/07/09 00:11:57;;;;;;;5.38;4.00;;;;;;;;;;4502148;28;20034;-59
2021/07/09 00:14:09;;;;;;;5.67;3.80;;;;;;;;;;4443455;28;20039;-59
2021/07/09 00:16:19;;;;;;;5.38;4.10;;;;;;;;;;4446863;28;20035;-59
2021/07/09 00:18:30;;;;;;;5.33;4.07;;;;;;;;;;4441553;28;20025;-59
2021/07/09 00:20:40;;;;;;;5.00;3.37;;;;;;;;;;4438346;28;20055;-59
2021/07/09 00:22:51;;;;;;;4.90;3.70;;;;;;;;;;4439281;28;20456;-59
2021/07/09 00:25:02;;;;;;;4.97;3.97;;;;;;;;;;4438182;28;20101;-59
2021/07/09 00:27:12;;;;;;;5.97;3.90;;;;;;;;;;4433125;28;20036;-59
2021/07/09 00:29:23;;;;;;;5.43;4.23;;;;;;;;;;4515423;28;20032;-59
2021/07/09 00:31:34;;;;;;;5.87;3.93;;;;;;;;;;4498873;28;21166;-59
2021/07/09 00:33:44;;;;;;;6.60;4.35;;;;;;;;;;4438010;28;20040;-59
2021/07/09 00:35:55;;;;;;;5.17;4.00;;;;;;;;;;4435225;28;20524;-59
2021/07/09 00:38:05;;;;;;;6.47;4.07;;;;;;;;;;4501750;28;20033;-59
2021/07/09 00:40:16;;;;;;;4.10;3.70;;;;;;;;;;4440016;28;20065;-59
2021/07/09 00:42:27;;;;;;;5.10;4.28;;;;;;;;;;4495966;28;20510;-59
2021/07/09 00:44:37;;;;;;;6.27;4.37;;;;;;;;;;4441486;28;20037;-59
2021/07/09 00:46:50;;;;;;;4.90;4.03;;;;;;;;;;4434096;28;20027;-59
2021/07/09 00:49:01;;;;;;;7.35;4.60;;;;;;;;;;4482999;28;20129;-59
2021/07/09 00:51:11;;;;;;;5.45;4.18;;;;;;;;;;4438364;28;20526;-59
2021/07/09 00:53:22;;;;;;;5.30;4.23;;;;;;;;;;4441738;28;20043;-59
2021/07/09 00:55:33;;;;;;;5.63;4.33;;;;;;;;;;4438937;28;20039;-59
2021/07/09 00:57:49;;;;;;;5.03;3.92;;;;;;;;;;4499250;28;20069;-59
2021/07/09 01:00:00;;;;;;;5.60;4.15;;;;;;;;;;4438852;28;20142;-59
2021/07/09 01:02:10;;;;;;;6.97;4.67;;;;;;;;;;4498844;28;20044;-59
2021/07/09 01:04:20;;;;;;;5.90;4.37;;;;;;;;;;4498504;28;20058;-59
2021/07/09 01:06:31;;;;;;;5.83;4.07;;;;;;;;;;4501568;28;20497;-59
2021/07/09 01:08:41;;;;;;;5.13;4.40;;;;;;;;;;4436758;28;20043;-59
2021/07/09 01:10:52;;;;;;;4.73;3.70;;;;;;;;;;4444218;28;20032;-59
2021/07/09 01:13:03;;;;;;;5.47;4.03;;;;;;;;;;4499813;28;20042;-60
2021/07/09 01:15:15;;;;;;;5.35;3.85;;;;;;;;;;4501814;28;20478;-60
2021/07/09 01:17:26;;;;;;;7.38;3.88;;;;;;;;;;4436052;28;20042;-60
2021/07/09 01:19:36;;;;;;;5.83;4.40;;;;;;;;;;4447527;28;20195;-59
2021/07/09 01:21:48;;;;;;;5.77;3.30;;;;;;;;;;4499359;28;20076;-59
2021/07/09 01:24:01;;;;;;;5.28;4.05;;;;;;;;;;4498908;28;20037;-59
2021/07/09 01:26:11;;;;;;;5.00;3.80;;;;;;;;;;4442326;28;20025;-59
2021/07/09 01:28:22;;;;;;;6.63;4.23;;;;;;;;;;4499262;28;20042;-59
2021/07/09 01:30:34;;;;;;;5.13;3.93;;;;;;;;;;4435917;28;20033;-59
2021/07/09 01:32:44;;;;;;;7.28;3.78;;;;;;;;;;4438559;28;20101;-60
2021/07/09 01:34:54;;;;;;;5.37;4.20;;;;;;;;;;4500729;28;20056;-60
2021/07/09 01:37:10;;;;;;;6.00;4.17;;;;;;;;;;4482407;28;20038;-59
2021/07/09 01:39:20;;;;;;;5.28;4.07;;;;;;;;;;4501807;28;20041;-59
2021/07/09 01:41:31;;;;;;;5.30;3.47;;;;;;;;;;4434733;28;21840;-59
2021/07/09 01:43:41;;;;;;;4.97;3.97;;;;;;;;;;4439985;28;20578;-59
2021/07/09 01:45:52;;;;;;;5.73;4.13;;;;;;;;;;4435123;28;20044;-60
2021/07/09 01:48:05;;;;;;;5.07;3.97;;;;;;;;;;4439687;28;20024;-59
2021/07/09 01:50:16;;;;;;;5.57;4.28;;;;;;;;;;4437852;28;20039;-59
2021/07/09 01:52:27;;;;;;;;;;;;;;;;;;4436682;28;20035;-60
2021/07/09 01:54:37;;;;;;;5.60;4.20;;;;;;;;;;4497370;28;19925;-59
2021/07/09 01:56:48;;;;;;;5.10;4.10;;;;;;;;;;4496864;28;20045;-60
2021/07/09 01:58:58;;;;;;;5.77;4.30;;;;;;;;;;4439796;28;20106;-59
2021/07/09 02:01:09;;;;;;;6.80;4.40;;;;;;;;;;4441254;28;20094;-60
2021/07/09 02:03:20;;;;;;;6.43;4.60;;;;;;;;;;4441337;28;27378;-59
2021/07/09 02:05:30;;;;;;;4.82;4.03;;;;;;;;;;4499346;28;20172;-60
2021/07/09 02:07:43;;;;;;;5.23;4.30;;;;;;;;;;4444276;28;20090;-60
2021/07/09 02:09:57;;;;;;;6.30;4.50;;;;;;;;;;4504840;28;20038;-59
2021/07/09 02:12:08;;;;;;;5.68;4.60;;;;;;;;;;4503569;28;20021;-60
2021/07/09 02:14:18;;;;;;;5.07;3.93;;;;;;;;;;4498487;28;20198;-59
2021/07/09 02:16:29;;;;;;;6.00;5.03;;;;;;;;;;4440869;28;20047;-59
2021/07/09 02:18:39;;;;;;;4.70;4.03;;;;;;;;;;4441265;28;20043;-60
2021/07/09 02:20:50;;;;;;;6.67;4.97;;;;;;;;;;4440554;28;20126;-60
2021/07/09 02:23:03;;;;;;;6.57;4.77;;;;;;;;;;4437378;28;20069;-59
2021/07/09 02:25:15;;;;;;;5.60;4.28;;;;;;;;;;4517045;28;20080;-60
2021/07/09 02:27:25;;;;;;;;;;;;;;;;;;4486394;28;20514;-60
2021/07/09 02:29:36;;;;;;;6.67;4.57;;;;;;;;;;4516396;28;19912;-60
2021/07/09 02:31:46;;;;;;;6.85;4.72;;;;;;;;;;4501284;28;20072;-59
2021/07/09 02:33:57;;;;;;;5.90;4.40;;;;;;;;;;4498807;28;20197;-60
2021/07/09 02:36:07;;;;;;;5.30;4.13;;;;;;;;;;4432667;28;22685;-60
2021/07/09 02:38:18;;;;;;;5.63;4.47;;;;;;;;;;4440396;28;20055;-59
2021/07/09 02:40:29;;;;;;;7.33;4.27;;;;;;;;;;4437049;28;20034;-59
2021/07/09 02:42:41;;;;;;;5.78;4.05;;;;;;;;;;4439040;28;20036;-60
2021/07/09 02:44:51;;;;;;;5.53;4.50;;;;;;;;;;4439811;28;20268;-60
2021/07/09 02:47:02;;;;;;;6.43;4.60;;;;;;;;;;4439308;28;20051;-59
2021/07/09 02:49:12;;;;;;;6.43;4.63;;;;;;;;;;4505422;28;20069;-59
2021/07/09 02:51:23;;;;;;;5.07;4.20;;;;;;;;;;4437438;28;20501;-60
2021/07/09 02:53:33;;;;;;;6.40;5.07;;;;;;;;;;4446577;28;20043;-60
2021/07/09 02:55:44;;;;;;;5.80;4.07;;;;;;;;;;4502948;28;20048;-59
2021/07/09 02:57:54;;;;;;;6.67;4.43;;;;;;;;;;4504169;28;20137;-60
2021/07/09 03:00:06;;;;;;;5.47;4.17;;;;;;;;;;4500831;28;20040;-60
2021/07/09 03:02:17;;;;;;;6.47;4.40;;;;;;;;;;4500897;28;20048;-60
2021/07/09 03:04:27;;;;;;;6.47;4.90;;;;;;;;;;4439184;28;20046;-60
2021/07/09 03:06:38;;;;;;;7.10;4.70;;;;;;;;;;4504091;28;20095;-60
2021/07/09 03:08:49;;;;;;;6.78;4.97;;;;;;;;;;4438140;28;20579;-60
2021/07/09 03:11:00;;;;;;;4.80;4.28;;;;;;;;;;4439524;28;20055;-60
2021/07/09 03:13:10;;;;;;;6.13;4.43;;;;;;;;;;4438829;28;20106;-60
2021/07/09 03:15:21;;;;;;;4.30;2.80;;;;;;;;;;4444616;28;20281;-60
2021/07/09 03:17:31;;;;;;;7.70;4.00;;;;;;;;;;4438580;28;27631;-60
2021/07/09 03:19:42;;;;;;;6.97;4.50;;;;;;;;;;4438119;28;20047;-59
2021/07/09 03:21:52;;;;;;;6.13;4.27;;;;;;;;;;4443015;28;20038;-59
2021/07/09 03:24:04;;;;;;;5.70;4.60;;;;;;;;;;4437349;28;20044;-60
2021/07/09 03:26:14;;;;;;;5.72;4.43;;;;;;;;;;4439810;28;20039;-60
2021/07/09 03:28:25;;;;;;;5.73;4.50;;;;;;;;;;4484927;28;20037;-60
2021/07/09 03:30:35;;;;;;;5.67;4.27;;;;;;;;;;4437989;28;20040;-59
2021/07/09 03:32:46;;;;;;;5.90;4.30;;;;;;;;;;4440160;28;20125;-59
2021/07/09 03:34:57;;;;;;;7.40;4.60;;;;;;;;;;4438699;28;20675;-59
2021/07/09 03:37:07;;;;;;;5.77;4.40;;;;;;;;;;4436450;28;20097;-59
2021/07/09 03:39:18;;;;;;;5.87;4.43;;;;;;;;;;4500696;28;20034;-59
2021/07/09 03:41:28;;;;;;;6.30;4.50;;;;;;;;;;4438926;28;20046;-59
2021/07/09 03:43:39;;;;;;;6.10;4.67;;;;;;;;;;4501629;28;20503;-61
2021/07/09 03:45:49;;;;;;;5.33;4.70;;;;;;;;;;4438761;28;20100;-59
2021/07/09 03:47:59;;;;;;;7.57;4.93;;;;;;;;;;4437659;28;20287;-59
2021/07/09 03:50:10;;;;;;;6.93;4.63;;;;;;;;;;4504580;28;20406;-59
2021/07/09 03:52:21;;;;;;;5.68;4.40;;;;;;;;;;4438887;28;20081;-59
2021/07/09 03:54:31;;;;;;;5.93;4.60;;;;;;;;;;4445282;28;20131;-60
2021/07/09 03:56:42;;;;;;;6.37;4.07;;;;;;;;;;4445658;28;20430;-59
2021/07/09 03:58:52;;;;;;;5.30;4.00;;;;;;;;;;4436979;28;20040;-59
2021/07/09 04:01:03;;;;;;;6.43;4.90;;;;;;;;;;4439182;28;20093;-59
2021/07/09 04:03:14;;;;;;;6.28;4.60;;;;;;;;;;4439119;28;20028;-59
2021/07/09 04:05:24;;;;;;;6.43;4.50;;;;;;;;;;4439382;28;20039;-59
2021/07/09 04:07:35;;;;;;;6.73;4.57;;;;;;;;;;4435312;28;20095;-59
2021/07/09 04:09:45;;;;;;;7.67;4.90;;;;;;;;;;4503140;28;20039;-59
2021/07/09 04:11:56;;;;;;;5.97;4.47;;;;;;;;;;4441862;28;20044;-59
2021/07/09 04:14:06;;;;;;;5.80;3.80;;;;;;;;;;4446910;28;20459;-60
2021/07/09 04:16:16;;;;;;;7.67;4.50;;;;;;;;;;4439223;28;28965;-59
2021/07/09 04:18:27;;;;;;;6.63;4.73;;;;;;;;;;4438440;28;20509;-59
2021/07/09 04:20:37;;;;;;;4.60;4.10;;;;;;;;;;4437961;28;20056;-59
2021/07/09 04:22:48;;;;;;;5.73;4.37;;;;;;;;;;4502658;28;20069;-59
2021/07/09 04:24:58;;;;;;;6.63;4.67;;;;;;;;;;4502369;28;20037;-59
2021/07/09 04:27:09;;;;;;;6.47;4.70;;;;;;;;;;4438999;28;20028;-60
2021/07/09 04:29:19;;;;;;;5.83;4.43;;;;;;;;;;4434465;28;20495;-60
2021/07/09 04:31:30;;;;;;;6.50;4.50;;;;;;;;;;4434824;28;20664;-60
2021/07/09 04:33:43;;;;;;;7.47;4.50;;;;;;;;;;4437943;28;20028;-59
2021/07/09 04:35:53;;;;;;;5.45;4.45;;;;;;;;;;4516398;28;20096;-59
2021/07/09 04:38:04;;;;;;;5.90;4.20;;;;;;;;;;4436642;28;20094;-59
2021/07/09 04:40:15;;;;;;;5.43;4.20;;;;;;;;;;4501016;28;20454;-60
2021/07/09 04:42:26;;;;;;;6.68;4.10;;;;;;;;;;4498473;28;20035;-60
2021/07/09 04:44:36;;;;;;;4.97;4.10;;;;;;;;;;4482953;28;20520;-59
2021/07/09 04:46:47;;;;;;;6.27;4.20;;;;;;;;;;4481510;28;20130;-60
2021/07/09 04:48:57;;;;;;;5.63;3.90;;;;;;;;;;4436473;28;20106;-59
2021/07/09 04:51:08;;;;;;;5.33;3.70;;;;;;;;;;4437718;28;20090;-59
2021/07/09 04:53:18;;;;;;;5.00;4.00;;;;;;;;;;4439478;28;20033;-60
2021/07/09 04:55:29;;;;;;;5.87;4.27;;;;;;;;;;4438926;28;20043;-61
2021/07/09 04:57:39;;;;;;;5.47;4.07;;;;;;;;;;4517036;28;20478;-60
2021/07/09 04:59:49;;;;;;;6.10;4.50;;;;;;;;;;4500482;28;20616;-59
2021/07/09 05:02:00;;;;;;;5.93;3.90;;;;;;;;;;4441060;28;20102;-59
2021/07/09 05:04:10;;;;;;;5.33;4.23;;;;;;;;;;4498604;28;20463;-60
2021/07/09 05:06:21;;;;;;;6.60;4.03;;;;;;;;;;4499425;28;20030;-60
2021/07/09 05:08:32;;;;;;;6.70;4.28;;;;;;;;;;4497157;28;20045;-60
2021/07/09 05:10:42;;;;;;;5.27;4.13;;;;;;;;;;4495971;28;20041;-60
2021/07/09 05:12:53;;;;;;;6.93;4.07;;;;;;;;;;4435547;28;20042;-60
2021/07/09 05:15:04;;;;;;;5.07;4.00;;;;;;;;;;4438500;28;20044;-60
2021/07/09 05:17:14;;;;;;;6.45;4.13;;;;;;;;;;4496303;28;20038;-60
2021/07/09 05:19:25;;;;;;;5.47;3.87;;;;;;;;;;4439366;28;20032;-60
2021/07/09 05:21:35;;;;;;;5.60;4.20;;;;;;;;;;4436143;28;20026;-59
2021/07/09 05:23:46;;;;;;;6.00;4.40;;;;;;;;;;4434198;28;20040;-60
2021/07/09 05:25:57;;;;;;;6.40;3.92;;;;;;;;;;4483943;28;20038;-60
2021/07/09 05:28:08;;;;;;;7.03;3.63;;;;;;;;;;4497003;28;20045;-60
2021/07/09 05:30:19;;;;;;;;;;;;;;;;;;4435663;28;20107;-59
2021/07/09 05:32:29;;;;;;;5.67;3.83;;;;;;;;;;4495990;28;20054;-59
2021/07/09 05:34:40;;;;;;;5.87;3.77;;;;;;;;;;4442783;28;20054;-59
2021/07/09 05:36:50;;;;;;;4.97;4.03;;;;;;;;;;4443205;28;20041;-59
2021/07/09 05:39:01;;;;;;;4.33;3.53;;;;;;;;;;4440676;28;20187;-59
2021/07/09 05:41:11;;;;;;;4.90;3.40;;;;;;;;;;4502792;28;20995;-58
2021/07/09 05:43:22;;;;;;;4.67;3.30;;;;;;;;;;4438757;28;20056;-58
2021/07/09 05:45:32;;;;;;;4.93;3.43;;;;;;;;;;4487589;28;20046;-59
2021/07/09 05:47:43;;;;;;;5.43;3.50;;;;;;;;;;4500777;28;20084;-59
2021/07/09 05:49:53;;;;;;;4.77;3.53;;;;;;;;;;4499784;28;20537;-58
2021/07/09 05:52:04;;;;;;;4.43;3.33;;;;;;;;;;4438242;28;20071;-58
2021/07/09 05:54:15;;;;;;;4.63;3.10;;;;;;;;;;4443014;28;21675;-58
2021/07/09 05:56:25;;;;;;;5.53;3.60;;;;;;;;;;4441524;28;20034;-59
2021/07/09 05:58:36;;;;;;;4.53;3.20;;;;;;;;;;4500046;28;20518;-59
2021/07/09 06:00:46;;;;;;;6.13;3.03;;;;;;;;;;4434276;28;20489;-59
2021/07/09 06:02:57;;;;;;;7.13;2.80;;;;;;;;;;4439794;28;20043;-58
2021/07/09 06:05:08;;;;;;;4.00;2.80;;;;;;;;;;4441841;28;20123;-58
2021/07/09 06:07:19;;;;;;;4.90;2.80;;;;;;;;;;4443391;28;20099;-58
2021/07/09 06:09:32;;;;;;;3.67;2.70;;;;;;;;;;4444636;28;20063;-58
2021/07/09 06:11:43;;;;;;;4.25;2.80;;;;;;;;;;4448263;28;20039;-58
2021/07/09 06:13:54;;;;;;;3.53;2.65;;;;;;;;;;4506304;28;20045;-58
2021/07/09 06:16:05;;;;;;;4.07;2.87;;;;;;;;;;4441612;28;20035;-58
2021/07/09 06:18:15;;;;;;;3.42;2.75;;;;;;;;;;4442862;28;20412;-58
2021/07/09 06:20:25;;;;;;;3.50;2.63;;;;;;;;;;4442135;28;20067;-58
2021/07/09 06:22:36;;;;;;;3.37;2.60;;;;;;;;;;4437606;28;20095;-58
2021/07/09 06:24:46;;;;;;;3.57;2.70;;;;;;;;;;4442331;28;20067;-58
2021/07/09 06:26:57;;;;;;;4.03;2.90;;;;;;;;;;4443871;28;20032;-58
2021/07/09 06:29:07;;;;;;;3.30;2.63;;;;;;;;;;4437550;28;20463;-58
2021/07/09 06:31:18;;;;;;;3.00;2.47;;;;;;;;;;4511256;28;20037;-58
2021/07/09 06:33:29;;;;;;;4.03;2.43;;;;;;;;;;4433020;28;20101;-58
2021/07/09 06:35:40;;;;;;;4.15;2.80;;;;;;;;;;4499667;28;20104;-58
2021/07/09 06:37:51;;;;;;;3.87;2.60;;;;;;;;;;4438092;28;20032;-58
2021/07/09 06:40:03;;;;;;;2.97;2.30;;;;;;;;;;4436979;28;20122;-58
2021/07/09 06:42:14;;;;;;;3.35;2.28;;;;;;;;;;4498951;28;20034;-58
2021/07/09 06:44:24;;;;;;;3.80;2.73;;;;;;;;;;4438515;28;20442;-59
2021/07/09 06:46:35;;;;;;;2.80;2.03;;;;;;;;;;4436643;28;20400;-58
2021/07/09 06:48:45;;;;;;;3.30;2.27;;;;;;;;;;4436726;28;20040;-58
2021/07/09 06:50:55;;;;;;;3.17;2.17;;;;;;;;;;4442659;28;20334;-58
2021/07/09 06:53:06;;;;;;;3.67;2.30;;;;;;;;;;4484678;28;20026;-58
2021/07/09 06:55:18;;;;;;;3.13;2.13;;;;;;;;;;4440950;28;20082;-58
2021/07/09 06:57:28;;;;;;;4.20;2.35;;;;;;;;;;4439813;28;20855;-58
2021/07/09 06:59:38;;;;;;;3.43;2.47;;;;;;;;;;4438603;28;20115;-58
2021/07/09 07:01:49;;;;;;;2.33;2.00;;;;;;;;;;4439649;28;20182;-58
2021/07/09 07:03:59;;;;;;;3.03;2.50;;;;;;;;;;4442442;28;20047;-58
2021/07/09 07:06:11;;;;;;;4.27;2.60;;;;;;;;;;4436610;28;20997;-58
2021/07/09 07:08:23;;;;;;;2.97;2.60;;;;;;;;;;4439234;28;20024;-58
2021/07/09 07:10:34;;;;;;;3.65;2.33;;;;;;;;;;4504438;28;20030;-58
2021/07/09 07:12:46;;;;;;;3.80;2.50;;;;;;;;;;4439918;28;20037;-58
2021/07/09 07:14:56;;;;;;;3.97;2.90;;;;;;;;;;4485632;28;20050;-58
2021/07/09 07:17:08;;;;;;;3.50;2.40;;;;;;;;;;4499384;28;22013;-58
2021/07/09 07:19:19;;;;;;;3.15;2.45;;;;;;;;;;4434509;28;20040;-58
2021/07/09 07:21:29;;;;;;;3.30;2.40;;;;;;;;;;4504636;28;20470;-58
2021/07/09 07:23:40;;;;;;;3.57;2.47;;;;;;;;;;4439159;28;20162;-58
2021/07/09 07:25:51;;;;;;;3.23;2.70;;;;;;;;;;4436835;28;20051;-58
2021/07/09 07:28:02;;;;;;;4.40;2.60;;;;;;;;;;4441446;28;20049;-58
2021/07/09 07:30:13;;;;;;;4.63;2.80;;;;;;;;;;4499182;28;20045;-58
2021/07/09 07:32:24;;;;;;;3.55;2.67;;;;;;;;;;4503453;28;20052;-58
2021/07/09 07:34:35;;;;;;;4.05;2.63;;;;;;;;;;4484697;28;20042;-58
2021/07/09 07:36:45;;;;;;;3.50;2.50;;;;;;;;;;4439545;28;20044;-58
2021/07/09 07:38:56;;;;;;;3.83;2.90;;;;;;;;;;4436657;28;20040;-58
2021/07/09 07:41:06;;;;;;;5.67;2.93;;;;;;;;;;4437773;28;20419;-58
2021/07/09 07:43:17;;;;;;;3.93;2.97;;;;;;;;;;4439014;28;20019;-58
2021/07/09 07:45:28;;;;;;;5.37;2.57;;;;;;;;;;4443382;28;20045;-58
2021/07/09 07:47:38;;;;;;;4.00;2.80;;;;;;;;;;4439888;28;20066;-58
2021/07/09 07:49:49;;;;;;;4.68;2.83;;;;;;;;;;4501506;28;20245;-58
2021/07/09 07:52:00;;;;;;;3.97;2.90;;;;;;;;;;4483768;28;20097;-58
2021/07/09 07:54:10;;;;;;;3.20;2.80;;;;;;;;;;4441062;28;20485;-58
2021/07/09 07:56:20;;;;;;;3.50;2.60;;;;;;;;;;4440062;28;20141;-59
2021/07/09 07:58:31;;;;;;;4.90;2.87;;;;;;;;;;4436158;28;20023;-58
2021/07/09 08:00:41;;;;;;;3.20;2.70;;;;;;;;;;4439692;28;20038;-58
2021/07/09 08:02:52;;;;;;;3.57;2.67;;;;;;;;;;4437890;28;20040;-58
2021/07/09 08:05:04;;;;;;;5.23;3.00;;;;;;;;;;4436804;28;20031;-58
2021/07/09 08:07:15;;;;;;;4.90;2.80;;;;;;;;;;4441322;28;20031;-59
2021/07/09 08:09:25;;;;;;;3.55;2.58;;;;;;;;;;4441066;28;20036;-59
2021/07/09 08:11:36;;;;;;;3.10;2.70;;;;;;;;;;4439550;28;20504;-59
2021/07/09 08:13:46;;;;;;;5.10;2.90;;;;;;;;;;4499520;28;20033;-58
2021/07/09 08:15:57;;;;;;;4.63;3.10;;;;;;;;;;4441412;28;20036;-59
2021/07/09 08:18:07;;;;;;;3.27;2.60;;;;;;;;;;4437083;28;20040;-59
2021/07/09 08:20:18;;;;;;;4.40;2.90;;;;;;;;;;4439572;28;20040;-59
2021/07/09 08:22:28;;;;;;;4.53;3.00;;;;;;;;;;4437367;28;20034;-59
2021/07/09 08:24:39;;;;;;;3.53;2.53;;;;;;;;;;4502573;28;20033;-59
2021/07/09 08:26:49;;;;;;;3.37;2.90;;;;;;;;;;4517487;28;20045;-59
2021/07/09 08:29:00;;;;;;;3.20;2.63;;;;;;;;;;4440289;28;20039;-59
2021/07/09 08:31:10;;;;;;;4.77;3.03;;;;;;;;;;4441217;28;20067;-59
2021/07/09 08:33:21;;;;;;;3.17;2.30;;;;;;;;;;4448681;28;20036;-59
2021/07/09 08:35:31;;;;;;;3.20;2.25;;;;;;;;;;4439777;28;20551;-59
2021/07/09 08:37:42;;;;;;;3.93;2.77;;;;;;;;;;4437994;28;20036;-59
2021/07/09 08:39:52;;;;;;;3.72;2.70;;;;;;;;;;4440110;28;20146;-59
2021/07/09 08:42:03;;;;;;;2.80;2.40;;;;;;;;;;4437213;28;20043;-59
2021/07/09 08:44:14;;;;;;;3.50;2.67;;;;;;;;;;4446896;28;20066;-59
2021/07/09 08:46:27;;;;;;;3.92;2.33;;;;;;;;;;4501315;28;20611;-59
2021/07/09 08:48:38;;;;;;;2.67;2.33;;;;;;;;;;4439651;28;20070;-59
2021/07/09 08:50:48;;;;;;;3.20;2.30;;;;;;;;;;4499598;28;20038;-59
2021/07/09 08:52:59;;;;;;;2.87;2.20;;;;;;;;;;4438111;28;20487;-59
2021/07/09 08:55:14;;;;;;;3.67;2.37;;;;;;;;;;4491710;28;20038;-59
2021/07/09 08:57:24;;;;;;;3.83;2.55;;;;;;;;;;4487188;28;20030;-59
2021/07/09 08:59:35;;;;;;;2.60;2.30;;;;;;;;;;4501022;28;20034;-59
2021/07/09 09:01:57;;;;;;;2.90;2.30;;;;;;;;;;4435809;28;20600;-59
2021/07/09 09:04:08;;;;;;;3.78;2.55;;;;;;;;;;4498920;28;20147;-59
2021/07/09 09:06:20;;;;;;;5.30;2.57;;;;;;;;;;4499455;28;21118;-59
2021/07/09 09:08:34;;;;;;;3.35;2.22;;;;;;;;;;4436250;28;20823;-60
2021/07/09 09:10:51;;;;;;;3.20;2.40;;;;;;;;;;4481898;28;20022;-59
2021/07/09 09:13:10;;;;;;;3.33;2.50;;;;;;;;;;4440129;28;20035;-60
2021/07/09 09:15:23;;;;;;;3.75;2.45;;;;;;;;;;4442385;28;20052;-60
2021/07/09 09:17:35;;;;;;;2.95;2.17;;;;;;;;;;4441736;28;21020;-59
2021/07/09 09:20:03;;;;;;;3.58;2.28;;;;;;;;;;4498511;28;20041;-60
2021/07/09 09:22:14;;;;;;;2.55;2.08;;;;;;;;;;4439584;28;20253;-59
2021/07/09 09:24:28;;;;;;;4.50;2.23;;;;;;;;;;4440567;28;20044;-59
2021/07/09 09:26:50;;;;;;;2.90;2.00;;;;;;;;;;4500894;28;21219;-59
2021/07/09 09:29:00;;;;;;;2.55;1.88;;;;;;;;;;4498585;28;20057;-60
2021/07/09 09:31:12;;;;;;;2.93;1.93;;;;;;;;;;4438301;28;20119;-60
2021/07/09 09:33:29;;;;;;;3.42;2.00;;;;;;;;;;4435965;28;20055;-60
2021/07/09 09:35:42;;;;;;;2.30;1.73;;;;;;;;;;4437408;28;20035;-59
2021/07/09 09:37:58;;;;;;;2.05;1.60;;;;;;;;;;4500292;28;20022;-59
2021/07/09 09:40:18;;;;;;;2.30;1.60;;;;;;;;;;4438278;28;20079;-59
2021/07/09 09:42:31;;;;;;;1.75;1.65;;;;;;;;;;4498823;28;20137;-58
2021/07/09 09:44:41;;;;;;;1.85;1.63;;;;;;;;;;4500395;28;20754;-58
2021/07/09 09:47:10;;;;;;;1.77;1.47;;;;;;;;;;4496199;28;20038;-58
2021/07/09 09:49:30;;;;;;;2.45;1.83;;;;;;;;;;4441418;28;20039;-58
2021/07/09 09:51:40;;;;;;;3.20;1.73;;;;;;;;;;4436897;28;20035;-58
2021/07/09 09:53:53;;;;;;;2.80;1.80;;;;;;;;;;4438106;28;20035;-58
2021/07/09 09:56:06;;;;;;;2.53;1.40;;;;;;;;;;4481318;28;21210;-59
2021/07/09 09:58:21;;;;;;;2.42;1.52;;;;;;;;;;4433955;28;20075;-59
2021/07/09 10:00:32;;;;;;;2.00;1.30;;;;;;;;;;4499724;28;20454;-58
2021/07/09 10:02:44;;;;;;;1.73;1.50;;;;;;;;;;4435573;28;21071;-58
2021/07/09 10:04:55;;;;;;;2.40;1.45;;;;;;;;;;4432541;28;20032;-58
2021/07/09 10:07:05;;;;;;;2.33;1.50;;;;;;;;;;4434800;28;20064;-58
2021/07/09 10:09:16;;;;;;;1.63;1.30;;;;;;;;;;4435715;28;20484;-58
2021/07/09 10:11:27;;;;;;;;;;;;;;;;;;4442752;28;20074;-58
2021/07/09 10:13:37;;;;;;;2.37;1.20;;;;;;;;;;4438775;28;19973;-58
2021/07/09 10:15:48;;;;;;;1.73;1.57;;;;;;;;;;4441103;28;20033;-58
2021/07/09 10:17:59;;;;;;;1.57;1.20;;;;;;;;;;4482980;28;20041;-58
2021/07/09 10:20:10;;;;;;;1.60;1.40;;;;;;;;;;4438353;28;20496;-58
2021/07/09 10:22:21;;;;;;;;;;;;;;;;;;4483729;28;20038;-59
2021/07/09 10:24:32;;;;;;;1.35;1.25;;;;;;;;;;4444280;28;20366;-59
2021/07/09 10:26:51;;;;;;;1.85;1.42;;;;;;;;;;4501229;28;20034;-59
2021/07/09 10:29:19;;;;;;;2.13;1.70;;;;;;;;;;4499741;28;20828;-58
2021/07/09 10:31:37;;;;;;;1.92;1.35;;;;;;;;;;4438054;28;20030;-59
2021/07/09 10:33:48;;;;;;;1.70;1.48;;;;;;;;;;4438782;28;20047;-59
2021/07/09 10:36:04;;;;;;;1.25;1.13;;;;;;;;;;4515868;28;20033;-59
2021/07/09 10:38:19;;;;;;;1.35;1.25;;;;;;;;;;4487513;28;20877;-59
2021/07/09 10:40:30;;;;;;;1.92;1.35;;;;;;;;;;4496880;28;20738;-59
2021/07/09 10:42:44;;;;;;;1.33;1.23;;;;;;;;;;4436723;28;20050;-59
2021/07/09 10:45:25;;;;;;;1.33;1.10;;;;;;;;;;4437035;28;20032;-59
2021/07/09 10:47:41;;;;;;;1.30;1.20;;;;;;;;;;4505870;28;20200;-59
2021/07/09 10:49:53;;;;;;;1.70;1.13;;;;;;;;;;4440408;28;20028;-59
2021/07/09 10:52:03;;;;;;;1.15;1.02;;;;;;;;;;4443851;28;20032;-59
2021/07/09 10:54:30;;;;;;;1.47;1.00;;;;;;;;;;4436825;28;20483;-59
2021/07/09 10:56:41;;;;;;;0.80;0.80;;;;;;;;;;4497417;28;20881;-59
2021/07/09 10:58:58;;;;;;;0.73;0.73;;;;;;;;;;4446530;28;20110;-60
2021/07/09 11:01:26;;;;;;;0.80;0.80;;;;;;;;;;4499939;28;20037;-59
2021/07/09 11:03:57;;;;;;;1.08;0.98;;;;;;;;;;4439789;28;20040;-60
2021/07/09 11:06:33;;;;;;;1.15;1.00;;;;;;;;;;4436637;28;20806;-59
2021/07/09 11:08:50;;;;;;;1.48;1.02;;;;;;;;;;4501009;28;20091;-59
2021/07/09 11:11:01;;;;;;;1.50;1.08;;;;;;;;;;4497751;28;20034;-60
2021/07/09 11:13:41;;;;;;;1.00;0.90;;;;;;;;;;4497232;28;20471;-60
2021/07/09 11:15:58;;;;;;;0.95;0.77;;;;;;;;;;4441206;28;21444;-60
2021/07/09 11:18:12;;;;;;;1.65;1.00;;;;;;;;;;4444631;28;20202;-60
2021/07/09 11:20:31;;;;;;;1.13;0.90;;;;;;;;;;4437010;28;20032;-59
2021/07/09 11:22:41;;;;;;;2.10;1.10;;;;;;;;;;4501032;28;20724;-60
2021/07/09 11:24:53;;;;;;;1.20;1.10;;;;;;;;;;4440499;28;20590;-60
2021/07/09 11:27:06;;;;;;;1.50;1.20;;;;;;;;;;4496901;28;20124;-60
2021/07/09 11:29:27;;;;;;;0.93;0.90;;;;;;;;;;4497771;28;20034;-60
2021/07/09 11:31:39;;;;;;;1.35;1.00;;;;;;;;;;4435995;28;20040;-60
2021/07/09 11:34:10;;;;;;;1.23;0.95;;;;;;;;;;4498733;28;20029;-60
2021/07/09 11:36:21;;;;;;;1.40;1.30;;;;;;;;;;4501209;28;20038;-60
2021/07/09 11:38:31;;;;;;;1.63;1.20;;;;;;;;;;4438087;28;20032;-60
2021/07/09 11:40:42;;;;;;;2.17;1.30;;;;;;;;;;4437941;28;20047;-60
2021/07/09 11:42:52;;;;;;;1.53;1.17;;;;;;;;;;4441902;28;20042;-60
2021/07/09 11:45:08;;;;;;;1.40;1.10;;;;;;;;;;4441663;28;20566;-60
2021/07/09 11:47:23;;;;;;;1.40;1.20;;;;;;;;;;4487040;28;20034;-60
2021/07/09 11:49:36;;;;;;;1.83;1.38;;;;;;;;;;4438407;28;21389;-60
2021/07/09 11:51:56;;;;;;;2.00;1.42;;;;;;;;;;4500377;28;20017;-60
2021/07/09 11:54:07;;;;;;;1.63;1.30;;;;;;;;;;4499388;28;21354;-60
2021/07/09 11:56:17;;;;;;;1.73;1.38;;;;;;;;;;4501472;28;20017;-60
2021/07/09 11:58:29;;;;;;;1.33;1.23;;;;;;;;;;4434917;28;20089;-60
2021/07/09 12:00:39;;;;;;;1.38;1.27;;;;;;;;;;4442413;28;20027;-60
2021/07/09 12:02:50;;;;;;;1.70;1.23;;;;;;;;;;4440381;28;20039;-60
2021/07/09 12:05:12;;;;;;;1.55;1.40;;;;;;;;;;4449419;28;20648;-60
2021/07/09 12:07:39;;;;;;;1.30;1.17;;;;;;;;;;4515758;28;20831;-60
2021/07/09 12:09:56;;;;;;;1.65;1.30;;;;;;;;;;4503859;28;20105;-61
2021/07/09 12:12:06;;;;;;;2.33;1.55;;;;;;;;;;4439047;28;20493;-60
2021/07/09 12:14:17;;;;;;;2.10;1.30;;;;;;;;;;4438663;28;20039;-60
2021/07/09 12:16:27;;;;;;;1.50;1.30;;;;;;;;;;4435423;28;20042;-60
2021/07/09 12:18:38;;;;;;;2.53;1.60;;;;;;;;;;4501683;28;20164;-60
2021/07/09 12:20:48;;;;;;;1.93;1.43;;;;;;;;;;4444883;28;20033;-60
2021/07/09 12:22:59;;;;;;;2.43;1.57;;;;;;;;;;4502954;28;20037;-60
2021/07/09 12:25:14;;;;;;;2.15;1.75;;;;;;;;;;4486952;28;20586;-60
2021/07/09 12:27:25;;;;;;;1.95;1.40;;;;;;;;;;4437544;28;20039;-60
2021/07/09 12:29:37;;;;;;;2.37;1.80;;;;;;;;;;4516697;28;20025;-60
2021/07/09 12:31:47;;;;;;;2.70;1.60;;;;;;;;;;4439324;28;20830;-60
2021/07/09 12:33:58;;;;;;;3.20;2.03;;;;;;;;;;4484612;28;20034;-60
2021/07/09 12:36:10;;;;;;;3.00;1.80;;;;;;;;;;4442141;28;20550;-60
2021/07/09 12:38:21;;;;;;;2.42;1.73;;;;;;;;;;4437468;28;20559;-60
2021/07/09 12:40:33;;;;;;;;;;;;;;;;;;4437126;28;20764;-60
2021/07/09 12:42:45;;;;;;;1.90;1.67;;;;;;;;;;4515367;28;19995;-60
2021/07/09 12:44:56;;;;;;;2.22;1.75;;;;;;;;;;4503008;28;20125;-60
2021/07/09 12:47:06;;;;;;;2.55;1.77;;;;;;;;;;4504927;28;20037;-60
2021/07/09 12:49:21;;;;;;;2.03;1.80;;;;;;;;;;4439058;28;20036;-60
2021/07/09 12:51:45;;;;;;;3.63;1.92;;;;;;;;;;4440165;28;20139;-60
2021/07/09 12:54:04;;;;;;;2.65;2.10;;;;;;;;;;4436596;28;20040;-61
2021/07/09 12:56:15;;;;;;;2.97;2.10;;;;;;;;;;4440672;28;20765;-60
2021/07/09 12:58:29;;;;;;;4.30;2.05;;;;;;;;;;4438847;28;20035;-60
2021/07/09 13:00:45;;;;;;;2.78;1.90;;;;;;;;;;4497313;28;20034;-60
2021/07/09 13:02:56;;;;;;;3.63;2.30;;;;;;;;;;4498391;28;20041;-60
2021/07/09 13:05:12;;;;;;;3.63;2.23;;;;;;;;;;4483730;28;20037;-61
2021/07/09 13:07:23;;;;;;;3.33;2.20;;;;;;;;;;4502310;28;20038;-60
2021/07/09 13:09:34;;;;;;;2.63;2.10;;;;;;;;;;4439506;28;20035;-60
2021/07/09 13:11:49;;;;;;;3.57;2.10;;;;;;;;;;4436797;28;20499;-60
2021/07/09 13:14:00;;;;;;;2.63;2.15;;;;;;;;;;4497398;28;20818;-60